FW2397 Weather Reports


Display with metric or nautical units.
time (UTC)temp
F
wind
direction
speed
MPH
gust
MPH
rain 1hr
in
rain 24hr
in
rain mn
in
humidity
%
barometer
mb
20200328121708 77 103 0.0 0.0 0.00 0.00 0.00 60 1014.7
20200328120053 76 46 0.0 0.0 0.00 0.00 0.00 56 1014.5
20200328114612 75 45 0.0 0.0 0.00 0.00 0.00 53 1014.3
20200328113034 74 44 0.0 0.0 0.00 0.00 0.00 44 1014.1
20200328111549 74 43 0.0 0.0 0.00 0.00 0.00 36 1013.9
20200328110039 73 43 0.0 0.0 0.00 0.00 0.00 34 1013.7
20200328104527 73 74 0.0 0.0 0.00 0.00 0.00 32 1013.5
20200328103050 73 74 0.0 0.0 0.00 0.00 0.00 31 1013.4
20200328101519 73 74 0.0 0.0 0.00 0.00 0.00 33 1013.1
20200328100023 73 74 0.0 0.0 0.00 0.00 0.00 35 1012.9
20200328094520 74 74 0.0 0.0 0.00 0.00 0.00 41 1012.9
20200328093147 74 74 0.0 0.0 0.00 0.00 0.00 49 1012.8
20200328091527 75 74 0.0 0.0 0.00 0.00 0.00 51 1012.6
20200328090019 75 74 0.0 0.0 0.00 0.00 0.00 52 1012.4
20200328084511 75 74 0.0 0.0 0.00 0.00 0.00 45 1012.3
20200328083012 75 74 0.0 0.0 0.00 0.00 0.00 46 1012.2
20200328081518 75 74 0.0 0.0 0.00 0.00 0.00 45 1012.0
20200328080033 75 74 0.0 0.0 0.00 0.00 0.00 48 1012.0
20200328074541 75 74 0.0 0.0 0.00 0.00 0.00 48 1011.9
20200328073024 75 74 0.0 0.0 0.00 0.00 0.00 47 1011.9
20200328071513 75 74 0.0 0.0 0.00 0.00 0.00 47 1011.8
20200328070017 75 71 0.0 0.0 0.00 0.00 0.00 48 1012.0
20200328064506 75 53 0.0 0.0 0.00 0.00 0.00 45 1011.9
20200328063007 75 51 0.0 0.0 0.00 0.00 0.00 46 1011.9
20200328061514 75 51 0.0 0.0 0.00 0.00 0.00 48 1012.0
20200328060004 75 49 0.0 0.0 0.00 0.00 0.00 51 1012.3
20200328054503 74 49 0.0 0.0 0.00 0.00 0.00 53 1012.5
20200328053211 74 36 0.0 0.0 0.00 0.00 0.00 44 1012.6
20200328051659 74 29 0.0 0.0 0.00 0.00 0.00 43 1012.8
20200328050142 74 28 0.0 0.0 0.00 0.00 0.00 37 1012.9
20200328044703 74 53 0.0 0.0 0.00 0.00 0.00 33 1012.9
20200328043133 74 28 0.0 0.0 0.00 0.00 0.00 32 1013.1
20200328041714 73 15 0.0 0.0 0.00 0.00 0.00 28 1013.1
20200328040249 73 33 0.0 0.0 0.00 0.00 0.00 21 1013.2
20200328034650 73 28 0.0 9.0 0.00 0.00 0.00 18 1013.4
20200328033136 73 5 3.0 8.0 0.00 0.00 0.00 17 1013.5
20200328031614 73 34 6.0 13.0 0.00 0.00 0.00 27 1013.7
20200328030109 73 11 11.0 16.0 0.00 0.00 0.00 44 1013.6
20200328024641 74 360 8.0 15.0 0.00 0.00 0.00 43 1013.6
20200328023100 74 24 9.0 15.0 0.00 0.00 0.00 40 1013.6
20200328021539 75 30 1.0 9.0 0.00 0.00 0.00 42 1013.5
20200328020115 75 13 2.0 9.0 0.00 0.00 0.00 50 1013.4
20200328014619 75 30 0.0 9.0 0.00 0.00 0.00 54 1013.3
20200328013137 76 33 2.0 9.0 0.00 0.00 0.00 55 1013.2
20200328011634 76 18 0.0 0.0 0.00 0.00 0.00 56 1013.1
20200328010111 76 32 0.0 0.0 0.00 0.00 0.00 56 1012.9
20200328004623 76 57 0.0 0.0 0.00 0.00 0.00 56 1012.7
20200328003116 76 56 0.0 6.0 0.00 0.00 0.00 57 1012.4
20200328001548 76 46 0.0 6.0 0.00 0.00 0.00 58 1012.2
20200328000122 77 40 3.0 9.0 0.00 0.00 0.00 57 1012.0
20200327234607 77 46 3.0 11.0 0.00 0.00 0.00 55 1011.8
20200327233051 77 29 0.0 0.0 0.00 0.00 0.00 55 1011.4
20200327231701 77 5 0.0 5.0 0.00 0.00 0.00 56 1011.2
20200327230110 77 343 0.0 5.0 0.00 0.00 0.00 57 1011.2
20200327224533 78 340 0.0 10.0 0.00 0.00 0.00 59 1011.0
20200327223059 79 342 6.0 11.0 0.00 0.00 0.00 62 1011.1
20200327221631 80 334 0.0 8.0 0.00 0.00 0.00 64 1010.9
20200327220137 80 326 0.0 0.0 0.00 0.00 0.00 65 1010.8
20200327214627 80 344 1.0 10.0 0.00 0.00 0.00 65 1010.8
20200327213136 80 336 3.0 12.0 0.00 0.00 0.00 65 1010.6
20200327211611 81 316 5.0 12.0 0.00 0.00 0.00 65 1010.6
20200327210247 81 333 4.0 13.0 0.00 0.00 0.00 65 1010.7
20200327204537 81 254 0.0 0.0 0.00 0.00 0.00 65 1010.6
20200327203054 82 234 2.0 8.0 0.00 0.00 0.00 64 1010.7
20200327201750 82 236 0.0 6.0 0.00 0.00 0.00 65 1010.7
20200327200045 83 214 2.0 9.0 0.00 0.00 0.00 62 1010.7
20200327194555 83 216 1.0 8.0 0.00 0.00 0.00 63 1010.8
20200327193032 83 217 1.0 9.0 0.00 0.00 0.00 64 1010.9
20200327191551 83 229 0.0 6.0 0.00 0.00 0.00 65 1011.0
20200327190146 83 219 1.0 7.0 0.00 0.00 0.00 65 1011.3
20200327184657 83 253 0.0 4.0 0.00 0.00 0.00 64 1011.3
20200327181545 82 228 1.0 6.0 0.00 0.00 0.00 65 1011.7
20200327180051 81 235 1.0 7.0 0.00 0.00 0.00 65 1011.7
20200327174603 82 238 1.0 5.0 0.00 0.00 0.00 65 1011.8
20200327173104 82 235 0.0 5.0 0.00 0.00 0.00 64 1012.0
20200327171525 82 233 0.0 8.0 0.00 0.00 0.00 65 1012.2
20200327170026 82 211 0.0 3.0 0.00 0.00 0.00 65 1012.3
20200327164546 82 220 1.0 8.0 0.00 0.00 0.00 65 1012.6
20200327163028 83 203 0.0 1.0 0.00 0.00 0.00 65 1012.7
20200327161529 83 211 0.0 1.0 0.00 0.00 0.00 65 1013.0
20200327160015 82 203 0.0 3.0 0.00 0.00 0.00 65 1013.2
20200327154531 82 232 0.0 3.0 0.00 0.00 0.00 65 1013.4
20200327153008 82 201 0.0 4.0 0.00 0.00 0.00 65 1013.5
20200327151503 82 220 0.0 0.0 0.00 0.00 0.00 65 1013.5
20200327150234 82 215 0.0 0.0 0.00 0.00 0.00 65 1013.5
20200327144705 82 221 0.0 0.0 0.00 0.00 0.00 64 1013.6
20200327143120 82 175 0.0 0.0 0.00 0.00 0.00 63 1013.7
20200327141648 82 202 0.0 0.0 0.00 0.00 0.00 63 1013.6
20200327140224 82 194 0.0 0.0 0.00 0.00 0.00 64 1013.5
20200327134651 81 147 0.0 0.0 0.00 0.00 0.00 64 1013.5
20200327133054 80 135 0.0 0.0 0.00 0.00 0.00 65 1013.3
20200327131623 80 128 0.0 0.0 0.00 0.00 0.00 63 1013.1
20200327130049 79 61 0.0 0.0 0.00 0.00 0.00 62 1013.0
20200327124552 79 28 0.0 0.0 0.00 0.00 0.00 62 1012.9
20200327123040 77 28 0.0 0.0 0.00 0.00 0.00 66 1012.8